createdAt,value
2023-05-03T00:00:12.799Z,3.38
2023-05-03T00:02:40.599Z,3.47
2023-05-03T00:05:17.967Z,3.58
2023-05-03T00:07:46.370Z,3.50
2023-05-03T00:10:16.057Z,3.30
2023-05-03T00:12:44.275Z,3.22
2023-05-03T00:15:11.991Z,4.30
2023-05-03T00:17:39.305Z,3.15
2023-05-03T00:20:08.265Z,3.03
2023-05-03T00:22:35.591Z,3.50
2023-05-03T00:25:04.105Z,3.65
2023-05-03T00:27:31.291Z,3.40
2023-05-03T00:29:58.434Z,3.70
2023-05-03T00:32:26.349Z,3.40
2023-05-03T00:34:57.484Z,2.75
2023-05-03T00:37:27.225Z,3.15
2023-05-03T00:39:54.412Z,3.30
2023-05-03T00:42:21.680Z,3.70
2023-05-03T00:44:49.083Z,3.50
2023-05-03T00:47:16.893Z,3.47
2023-05-03T00:49:44.611Z,3.53
2023-05-03T00:52:11.879Z,3.20
2023-05-03T00:54:39.409Z,3.53
2023-05-03T00:57:06.982Z,3.83
2023-05-03T00:59:34.918Z,3.42
2023-05-03T01:02:02.137Z,4.53
2023-05-03T01:04:29.746Z,3.42
2023-05-03T01:07:24.036Z,3.05
2023-05-03T01:09:56.318Z,3.10
2023-05-03T01:12:54.274Z,3.35
2023-05-03T01:15:49.128Z,3.15
2023-05-03T01:18:22.278Z,3.40
2023-05-03T01:20:50.321Z,3.00
2023-05-03T01:24:01.142Z,3.13
2023-05-03T01:26:28.808Z,3.30
2023-05-03T01:28:56.283Z,3.30
2023-05-03T01:32:06.638Z,3.50
2023-05-03T01:34:44.857Z,3.50
2023-05-03T01:37:14.213Z,2.97
2023-05-03T01:40:07.588Z,3.22
2023-05-03T01:42:37.673Z,3.30
2023-05-03T01:45:05.885Z,3.00
2023-05-03T01:47:33.260Z,3.65
2023-05-03T01:50:00.723Z,3.63
2023-05-03T01:52:28.238Z,3.38
2023-05-03T01:54:55.377Z,3.40
2023-05-03T01:57:22.489Z,3.30
2023-05-03T01:59:49.586Z,2.92
2023-05-03T02:02:16.718Z,3.80
2023-05-03T02:04:44.031Z,3.10
2023-05-03T02:07:11.248Z,3.55
2023-05-03T02:09:38.348Z,3.33
2023-05-03T02:12:05.839Z,3.25
2023-05-03T02:14:34.075Z,3.13
2023-05-03T02:17:04.002Z,3.72
2023-05-03T02:19:31.236Z,3.05
2023-05-03T02:21:58.564Z,3.72
2023-05-03T02:24:25.810Z,3.08
2023-05-03T02:26:52.906Z,3.30
2023-05-03T02:29:20.082Z,3.20
2023-05-03T02:31:47.179Z,3.20
2023-05-03T02:34:14.429Z,3.25
2023-05-03T02:36:41.505Z,3.45
2023-05-03T02:39:08.799Z,3.05
2023-05-03T02:41:36.208Z,3.35
2023-05-03T02:44:03.990Z,3.40
2023-05-03T02:46:31.549Z,3.33
2023-05-03T02:48:58.715Z,4.47
2023-05-03T02:51:27.101Z,3.70
2023-05-03T02:53:54.546Z,3.90
2023-05-03T02:56:21.667Z,3.83
2023-05-03T02:58:48.760Z,3.45
2023-05-03T03:01:16.140Z,3.30
2023-05-03T03:03:43.414Z,3.65
2023-05-03T03:06:10.793Z,3.25
2023-05-03T03:08:37.912Z,3.78
2023-05-03T03:11:05.714Z,4.10
2023-05-03T03:13:33.330Z,4.15
2023-05-03T03:16:00.529Z,4.82
2023-05-03T03:18:27.691Z,3.90
2023-05-03T03:20:54.781Z,3.97
2023-05-03T03:23:22.131Z,4.18
2023-05-03T03:25:49.191Z,4.50
2023-05-03T03:28:16.341Z,4.43
2023-05-03T03:30:43.406Z,3.92
2023-05-03T03:33:12.099Z,4.07
2023-05-03T03:35:39.918Z,3.75
2023-05-03T03:38:07.036Z,3.70
2023-05-03T03:40:35.266Z,3.70
2023-05-03T03:43:03.001Z,3.70
2023-05-03T05:03:14.896Z,4.30
2023-05-03T05:05:42.078Z,4.22
2023-05-03T05:08:09.234Z,3.78
2023-05-03T05:10:41.606Z,3.80
2023-05-03T05:13:08.699Z,3.53
2023-05-03T05:15:35.975Z,3.67
2023-05-03T05:18:03.308Z,4.47
2023-05-03T05:20:30.873Z,4.07
2023-05-03T05:22:57.993Z,4.30
2023-05-03T05:25:25.084Z,4.20
2023-05-03T05:27:52.165Z,3.63
2023-05-03T05:30:19.626Z,3.80
2023-05-03T05:32:46.910Z,4.45
2023-05-03T05:35:16.380Z,4.35
2023-05-03T05:37:43.440Z,4.80
2023-05-03T05:40:11.412Z,4.85
2023-05-03T05:42:38.584Z,4.60
2023-05-03T05:45:08.136Z,4.25
2023-05-03T05:47:35.434Z,4.50
2023-05-03T05:50:09.745Z,4.53
2023-05-03T05:52:42.402Z,4.72
2023-05-03T05:55:13.824Z,4.93
2023-05-03T05:57:40.919Z,5.47
2023-05-03T06:00:14.589Z,4.55
2023-05-03T06:02:42.645Z,4.75
2023-05-03T06:05:11.035Z,4.63
2023-05-03T06:07:38.290Z,4.90
2023-05-03T06:10:06.376Z,4.88
2023-05-03T06:12:33.896Z,5.00
2023-05-03T06:15:02.268Z,4.55
2023-05-03T06:17:29.896Z,4.78
2023-05-03T06:19:58.319Z,4.68
2023-05-03T06:22:26.521Z,4.78
2023-05-03T06:24:56.330Z,4.25
2023-05-03T06:27:23.419Z,3.95
2023-05-03T06:29:50.789Z,3.97
2023-05-03T06:32:19.335Z,4.20
2023-05-03T06:34:46.521Z,3.80
2023-05-03T06:37:14.251Z,3.08
2023-05-03T06:39:41.428Z,3.42
2023-05-03T06:42:08.568Z,3.70
2023-05-03T06:44:36.010Z,3.40
2023-05-03T06:47:03.216Z,2.95
2023-05-03T06:49:30.408Z,2.80
2023-05-03T06:51:57.555Z,2.72
2023-05-03T06:54:24.891Z,2.60
2023-05-03T06:56:52.084Z,3.15
2023-05-03T06:59:19.486Z,2.60
2023-05-03T07:01:47.308Z,2.10
2023-05-03T07:04:14.722Z,2.20
2023-05-03T07:06:55.500Z,2.08
2023-05-03T07:09:35.380Z,2.03
2023-05-03T07:12:09.278Z,2.28
2023-05-03T07:14:36.485Z,2.13
2023-05-03T07:17:04.091Z,2.40
2023-05-03T07:19:31.251Z,2.30
2023-05-03T07:21:58.478Z,2.40
2023-05-03T07:24:28.742Z,2.05
2023-05-03T07:26:56.541Z,2.20
2023-05-03T07:29:23.651Z,2.05
2023-05-03T07:31:53.349Z,2.05
2023-05-03T07:34:21.287Z,2.10
2023-05-03T07:36:48.602Z,2.58
2023-05-03T07:39:16.013Z,2.35
2023-05-03T07:41:43.094Z,2.00
2023-05-03T07:44:10.245Z,2.15
2023-05-03T07:46:37.425Z,2.17
2023-05-03T07:49:06.779Z,1.88
2023-05-03T07:51:38.482Z,2.10
2023-05-03T07:56:33.030Z,2.83
2023-05-03T08:01:30.682Z,2.40
2023-05-03T08:03:58.889Z,2.45
2023-05-03T08:06:26.538Z,2.50
2023-05-03T08:08:53.771Z,2.42
2023-05-03T08:11:21.172Z,2.67
2023-05-03T08:13:48.371Z,2.40
2023-05-03T08:16:16.662Z,2.40
2023-05-03T08:18:43.932Z,2.50
2023-05-03T08:21:12.609Z,2.53
2023-05-03T08:23:39.922Z,2.50
2023-05-03T08:26:07.982Z,2.55
2023-05-03T08:28:35.672Z,2.50
2023-05-03T08:31:05.085Z,2.13
2023-05-03T08:33:32.548Z,2.50
2023-05-03T08:36:00.337Z,2.20
2023-05-03T08:38:27.698Z,2.15
2023-05-03T08:40:57.531Z,2.10
2023-05-03T08:43:26.663Z,2.65
2023-05-03T08:45:53.897Z,2.75
2023-05-03T08:48:21.138Z,2.65
2023-05-03T08:50:51.824Z,2.80
2023-05-03T08:53:18.960Z,2.60
2023-05-03T08:55:46.081Z,2.60
2023-05-03T08:58:13.616Z,2.70
2023-05-03T09:00:45.174Z,2.70
2023-05-03T09:03:13.267Z,2.67
2023-05-03T09:05:43.570Z,2.40
2023-05-03T09:08:12.962Z,2.53
2023-05-03T09:10:42.193Z,2.50
2023-05-03T09:13:10.310Z,2.63
2023-05-03T09:15:37.621Z,2.70
2023-05-03T09:18:21.266Z,2.38
2023-05-03T09:20:52.810Z,2.40
2023-05-03T09:23:32.214Z,2.60
2023-05-03T09:26:02.286Z,2.30
2023-05-03T09:28:29.961Z,2.90
2023-05-03T09:31:07.599Z,2.60
2023-05-03T09:33:35.044Z,2.63
2023-05-03T09:36:04.954Z,2.80
2023-05-03T09:38:34.990Z,2.70
2023-05-03T09:41:02.168Z,2.67
2023-05-03T09:43:29.742Z,2.78
2023-05-03T09:46:12.609Z,2.60
2023-05-03T09:48:40.731Z,2.75
2023-05-03T09:51:08.533Z,2.55
2023-05-03T09:53:37.405Z,3.15
2023-05-03T09:56:09.220Z,3.05
2023-05-03T09:58:36.965Z,3.10
2023-05-03T10:01:04.565Z,2.63
2023-05-03T10:03:44.255Z,2.88
2023-05-03T10:06:28.222Z,2.70
2023-05-03T10:09:27.410Z,2.88
2023-05-03T10:11:55.809Z,2.90
2023-05-03T10:14:23.326Z,2.90
2023-05-03T10:16:53.677Z,2.92
2023-05-03T10:19:34.103Z,3.30
2023-05-03T10:22:11.006Z,3.55
2023-05-03T10:25:02.918Z,3.38
2023-05-03T10:27:51.433Z,3.47
2023-05-03T10:30:39.580Z,3.22
2023-05-03T10:33:12.803Z,3.70
2023-05-03T10:35:42.638Z,3.55
2023-05-03T10:38:22.717Z,3.67
2023-05-03T10:40:50.043Z,3.38
2023-05-03T10:43:35.813Z,3.53
2023-05-03T10:46:05.833Z,3.47
2023-05-03T10:48:34.243Z,3.40
2023-05-03T10:51:30.911Z,3.67
2023-05-03T10:53:58.084Z,3.60
2023-05-03T10:56:25.158Z,3.33
2023-05-03T10:58:56.455Z,3.45
2023-05-03T11:01:24.875Z,3.25
2023-05-03T11:04:08.186Z,3.42
2023-05-03T11:06:41.549Z,3.83
2023-05-03T11:09:12.328Z,3.85
2023-05-03T11:11:41.291Z,3.50
2023-05-03T11:14:09.606Z,4.30
2023-05-03T11:16:37.152Z,3.60
2023-05-03T11:19:04.544Z,3.80
2023-05-03T11:21:32.398Z,3.95
2023-05-03T11:24:01.569Z,3.67
2023-05-03T11:26:28.737Z,3.50
2023-05-03T11:28:56.139Z,4.13
2023-05-03T11:31:23.376Z,3.97
2023-05-03T11:33:51.489Z,3.97
2023-05-03T11:36:18.638Z,3.42
2023-05-03T11:38:46.015Z,3.88
2023-05-03T11:41:17.797Z,4.10
2023-05-03T11:43:46.792Z,3.85
2023-05-03T11:46:26.881Z,4.00
2023-05-03T11:48:54.606Z,3.67
2023-05-03T11:51:25.539Z,4.00
2023-05-03T11:53:56.957Z,3.90
2023-05-03T11:56:24.714Z,3.83
2023-05-03T11:59:01.881Z,4.00
2023-05-03T12:01:30.340Z,3.72
2023-05-03T12:04:02.389Z,3.85
2023-05-03T12:06:34.015Z,3.97
2023-05-03T12:09:04.011Z,4.10
2023-05-03T12:11:35.632Z,3.70
2023-05-03T12:14:04.155Z,3.92
2023-05-03T12:16:51.995Z,3.88
2023-05-03T12:19:33.428Z,4.10
2023-05-03T12:24:33.210Z,3.60
2023-05-03T12:27:02.722Z,4.00
2023-05-03T12:29:34.673Z,4.10
2023-05-03T12:32:05.974Z,3.80
2023-05-03T12:34:36.292Z,4.00
2023-05-03T12:37:05.691Z,4.32
2023-05-03T12:39:35.184Z,4.35
2023-05-03T12:42:07.956Z,4.05
2023-05-03T12:44:35.921Z,4.10
2023-05-03T12:47:04.550Z,3.90
2023-05-03T12:49:32.355Z,3.53
2023-05-03T12:52:25.249Z,4.10
2023-05-03T12:54:49.373Z,4.07
2023-05-03T12:57:23.411Z,4.53
2023-05-03T12:59:56.270Z,4.10
2023-05-03T13:05:00.741Z,3.78
2023-05-03T13:07:31.731Z,4.07
2023-05-03T13:12:33.740Z,4.30
2023-05-03T13:15:05.794Z,3.90
2023-05-03T13:17:33.702Z,4.32
2023-05-03T13:20:01.532Z,4.10
2023-05-03T13:22:28.889Z,4.60
2023-05-03T13:24:56.564Z,4.43
2023-05-03T13:27:23.752Z,4.32
2023-05-03T13:29:51.558Z,4.25
2023-05-03T13:32:18.875Z,4.50
2023-05-03T13:39:49.080Z,5.32
2023-05-03T13:42:16.281Z,4.20
2023-05-03T13:44:47.262Z,4.72
2023-05-03T13:47:14.954Z,4.60
2023-05-03T13:49:42.182Z,4.50
2023-05-03T13:52:09.522Z,5.45
2023-05-03T13:54:37.215Z,4.53
2023-05-03T13:57:04.819Z,4.90
2023-05-03T13:59:32.332Z,4.90
2023-05-03T14:02:00.380Z,4.65
2023-05-03T14:04:27.685Z,4.53
2023-05-03T14:06:54.907Z,4.80
2023-05-03T14:09:22.164Z,4.45
2023-05-03T14:11:49.307Z,4.78
2023-05-03T14:14:16.676Z,4.88
2023-05-03T14:16:44.472Z,4.82
2023-05-03T14:19:12.139Z,5.22
2023-05-03T14:21:41.363Z,4.97
2023-05-03T14:24:08.763Z,4.85
2023-05-03T14:26:37.477Z,4.70
2023-05-03T14:29:05.944Z,4.22
2023-05-03T14:31:34.655Z,4.82
2023-05-03T14:34:02.599Z,4.70
2023-05-03T14:36:35.041Z,4.55
2023-05-03T14:39:05.435Z,4.75
2023-05-03T14:41:33.670Z,4.70
2023-05-03T14:44:01.195Z,4.50
2023-05-03T14:46:28.485Z,4.72
2023-05-03T14:48:55.929Z,4.57
2023-05-03T14:51:24.106Z,4.93
2023-05-03T14:53:51.609Z,4.30
2023-05-03T14:56:18.789Z,5.55
2023-05-03T14:58:46.287Z,4.90
2023-05-03T15:01:19.551Z,4.75
2023-05-03T15:03:46.993Z,4.25
2023-05-03T15:06:14.132Z,4.90
2023-05-03T15:08:41.606Z,4.22
2023-05-03T15:11:09.131Z,4.35
2023-05-03T15:13:36.381Z,4.82
2023-05-03T15:16:03.956Z,4.70
2023-05-03T15:18:31.733Z,4.50
2023-05-03T15:20:58.861Z,4.20
2023-05-03T15:23:26.402Z,4.97
2023-05-03T15:25:54.013Z,4.78
2023-05-03T15:28:21.596Z,4.97
2023-05-03T15:30:48.731Z,4.95
2023-05-03T15:33:15.918Z,4.88
2023-05-03T15:35:43.096Z,4.90
2023-05-03T15:38:10.197Z,4.80
2023-05-03T15:40:37.411Z,4.72
2023-05-03T15:43:04.626Z,4.75
2023-05-03T15:45:31.833Z,4.68
2023-05-03T15:47:59.197Z,4.90
2023-05-03T15:50:26.611Z,4.72
2023-05-03T15:52:53.932Z,4.70
2023-05-03T15:55:21.085Z,4.20
2023-05-03T15:57:48.288Z,5.22
2023-05-03T16:00:17.251Z,3.97
2023-05-03T16:02:44.596Z,4.15
2023-05-03T16:05:11.970Z,4.25
2023-05-03T16:07:39.588Z,3.88
2023-05-03T16:10:09.643Z,4.25
2023-05-03T16:12:37.322Z,5.47
2023-05-03T16:15:05.608Z,4.47
2023-05-03T16:17:35.726Z,4.25
2023-05-03T16:20:05.997Z,4.03
2023-05-03T16:22:33.275Z,4.28
2023-05-03T16:25:00.333Z,4.10
2023-05-03T16:27:27.453Z,3.90
2023-05-03T16:29:55.167Z,4.10
2023-05-03T16:32:22.476Z,4.60
2023-05-03T16:34:50.501Z,4.03
2023-05-03T16:37:17.732Z,4.70
2023-05-03T16:39:45.070Z,3.95
2023-05-03T16:42:12.498Z,3.97
2023-05-03T16:44:39.667Z,4.45
2023-05-03T16:47:06.918Z,4.13
2023-05-03T16:49:34.629Z,4.10
2023-05-03T16:52:02.334Z,4.57
2023-05-03T16:54:29.676Z,5.22
2023-05-03T16:56:56.853Z,4.38
2023-05-03T16:59:24.043Z,4.07
2023-05-03T17:01:51.663Z,5.07
2023-05-03T17:04:18.882Z,4.65
2023-05-03T17:06:46.494Z,4.20
2023-05-03T17:09:14.266Z,4.80
2023-05-03T17:11:41.603Z,4.28
2023-05-03T17:14:08.917Z,4.50
2023-05-03T17:16:41.298Z,4.93
2023-05-03T17:19:09.722Z,4.43
2023-05-03T17:21:36.968Z,4.63
2023-05-03T17:24:04.316Z,4.65
2023-05-03T17:26:32.441Z,4.40
2023-05-03T17:28:59.553Z,4.80
2023-05-03T17:31:26.767Z,4.40
2023-05-03T17:33:53.916Z,4.63
2023-05-03T17:36:22.432Z,4.80
2023-05-03T17:38:50.103Z,4.55
2023-05-03T17:41:17.309Z,4.80
2023-05-03T17:43:44.921Z,4.78
2023-05-03T17:46:14.844Z,4.43
2023-05-03T17:48:48.678Z,4.93
2023-05-03T17:51:16.068Z,4.78
2023-05-03T17:53:43.390Z,5.07
2023-05-03T17:56:18.821Z,4.60
2023-05-03T17:58:46.959Z,5.40
2023-05-03T18:01:16.107Z,5.20
2023-05-03T18:03:43.440Z,5.15
2023-05-03T18:06:13.492Z,4.90
2023-05-03T18:08:41.652Z,4.93
2023-05-03T18:11:09.503Z,4.78
2023-05-03T18:13:36.845Z,4.80
2023-05-03T18:16:08.426Z,4.78
2023-05-03T18:21:04.280Z,4.70
2023-05-03T18:23:32.451Z,5.32
2023-05-03T18:26:00.254Z,4.32
2023-05-03T18:28:27.766Z,4.20
2023-05-03T18:30:58.115Z,4.03
2023-05-03T18:33:25.584Z,4.60
2023-05-03T18:35:53.734Z,4.40
2023-05-03T18:38:21.935Z,4.15
2023-05-03T18:40:49.860Z,4.38
2023-05-03T18:43:17.280Z,4.53
2023-05-03T18:45:44.899Z,5.15
2023-05-03T18:48:12.226Z,5.63
2023-05-03T18:50:41.461Z,5.40
2023-05-03T18:53:10.658Z,5.18
2023-05-03T18:55:38.014Z,5.20
2023-05-03T18:58:05.522Z,4.78
2023-05-03T19:00:32.741Z,4.90
2023-05-03T19:03:00.050Z,4.88
2023-05-03T19:05:27.744Z,5.03
2023-05-03T19:07:55.090Z,4.63
2023-05-03T19:10:22.372Z,4.75
2023-05-03T19:12:53.510Z,4.90
2023-05-03T19:15:20.873Z,4.55
2023-05-03T19:17:47.986Z,4.03
2023-05-03T19:20:15.240Z,4.65
2023-05-03T19:22:42.402Z,4.40
2023-05-03T19:25:09.912Z,4.68
2023-05-03T19:27:37.099Z,4.32
2023-05-03T19:30:05.048Z,4.25
2023-05-03T19:32:35.450Z,4.40
2023-05-03T19:35:02.783Z,4.80
2023-05-03T19:37:29.943Z,5.18
2023-05-03T19:39:57.943Z,6.80
2023-05-03T19:42:25.035Z,4.90
2023-05-03T19:44:52.151Z,5.22
2023-05-03T19:47:19.269Z,4.93
2023-05-03T19:49:46.408Z,4.68
2023-05-03T19:52:13.684Z,4.68
2023-05-03T19:54:40.891Z,4.78
2023-05-03T19:57:08.150Z,5.15
2023-05-03T19:59:35.511Z,5.57
2023-05-03T20:02:03.374Z,5.43
2023-05-03T20:04:30.752Z,4.63
2023-05-03T20:06:57.898Z,5.55
2023-05-03T20:09:25.240Z,5.18
2023-05-03T20:12:00.467Z,5.00
2023-05-03T20:14:27.758Z,5.13
2023-05-03T20:16:55.980Z,4.70
2023-05-03T20:19:23.695Z,4.97
2023-05-03T20:21:50.796Z,4.80
2023-05-03T20:24:17.888Z,4.60
2023-05-03T20:26:45.040Z,4.53
2023-05-03T20:29:12.155Z,4.97
2023-05-03T20:31:39.789Z,5.15
2023-05-03T20:34:06.967Z,4.97
2023-05-03T20:36:34.209Z,4.43
2023-05-03T20:39:01.437Z,4.97
2023-05-03T20:41:28.594Z,4.60
2023-05-03T20:43:55.997Z,4.68
2023-05-03T20:46:23.286Z,4.85
2023-05-03T20:48:51.189Z,4.85
2023-05-03T20:51:18.307Z,4.63
2023-05-03T20:53:45.574Z,4.57
2023-05-03T20:56:12.724Z,5.13
2023-05-03T20:58:39.849Z,5.22
2023-05-03T21:01:08.221Z,5.47
2023-05-03T21:03:35.678Z,5.40
2023-05-03T21:06:03.080Z,5.22
2023-05-03T21:08:30.209Z,5.15
2023-05-03T21:10:57.418Z,4.75
2023-05-03T21:13:24.650Z,4.90
2023-05-03T21:15:51.773Z,5.07
2023-05-03T21:18:19.760Z,5.35
2023-05-03T21:20:47.352Z,5.03
2023-05-03T21:23:14.514Z,5.00
2023-05-03T21:25:41.666Z,5.07
2023-05-03T21:28:08.767Z,5.28
2023-05-03T21:30:36.354Z,5.50
2023-05-03T21:33:06.000Z,4.97
2023-05-03T21:35:33.121Z,5.13
2023-05-03T21:38:00.228Z,5.20
2023-05-03T21:40:27.779Z,6.03
2023-05-03T21:42:55.961Z,6.30
2023-05-03T21:45:23.696Z,5.95
2023-05-03T21:47:51.266Z,6.15
2023-05-03T21:50:18.767Z,6.35
2023-05-03T21:52:46.286Z,6.03
2023-05-03T21:55:13.496Z,6.18
2023-05-03T21:57:40.582Z,6.70
2023-05-03T22:00:08.960Z,6.60
2023-05-03T22:02:36.182Z,6.30
2023-05-03T22:05:03.741Z,7.15
2023-05-03T22:07:30.896Z,6.90
2023-05-03T22:09:58.222Z,6.55
2023-05-03T22:12:25.939Z,7.53
2023-05-03T22:14:53.592Z,6.78
2023-05-03T22:17:21.251Z,7.30
2023-05-03T22:19:48.415Z,8.00
2023-05-03T22:22:15.744Z,7.15
2023-05-03T22:24:42.938Z,7.15
2023-05-03T22:27:10.042Z,7.93
2023-05-03T22:29:37.676Z,7.38
2023-05-03T22:32:05.122Z,7.82
2023-05-03T22:34:32.394Z,7.85
2023-05-03T22:36:59.635Z,7.60
2023-05-03T22:39:26.981Z,7.35
2023-05-03T22:41:54.354Z,8.43
2023-05-03T22:44:21.505Z,8.27
2023-05-03T22:46:48.640Z,7.97
2023-05-03T22:49:15.843Z,7.88
2023-05-03T22:51:42.951Z,7.97
2023-05-03T22:54:10.069Z,8.35
2023-05-03T22:56:37.725Z,8.80
2023-05-03T22:59:05.123Z,8.18
2023-05-03T23:01:32.497Z,7.75
2023-05-03T23:03:59.719Z,8.82
2023-05-03T23:06:26.995Z,8.40
2023-05-03T23:08:54.077Z,8.05
2023-05-03T23:11:21.547Z,8.32
2023-05-03T23:13:48.793Z,8.00
2023-05-03T23:16:15.942Z,8.20
2023-05-03T23:18:43.137Z,7.63
2023-05-03T23:21:10.383Z,7.75
2023-05-03T23:23:37.589Z,7.90
2023-05-03T23:26:04.763Z,7.65
2023-05-03T23:28:32.971Z,8.15
2023-05-03T23:31:00.633Z,8.60
2023-05-03T23:33:28.567Z,7.88
2023-05-03T23:35:55.967Z,7.53
2023-05-03T23:38:23.236Z,8.35
2023-05-03T23:40:50.377Z,8.27
2023-05-03T23:43:17.459Z,7.75
2023-05-03T23:45:44.614Z,7.57
2023-05-03T23:48:12.133Z,8.40
2023-05-03T23:50:39.320Z,8.00
2023-05-03T23:53:07.256Z,7.82
2023-05-03T23:55:34.434Z,7.63
2023-05-03T23:58:01.573Z,7.20
